createdAt,value
2019-01-10T00:00:17.524Z,42.10
2019-01-10T00:01:17.595Z,42.60
2019-01-10T00:02:17.662Z,43.40
2019-01-10T00:03:17.671Z,44.80
2019-01-10T00:04:17.752Z,44.10
2019-01-10T00:05:17.853Z,43.90
2019-01-10T00:06:17.846Z,43.20
2019-01-10T00:07:17.906Z,44.40
2019-01-10T00:08:17.938Z,43.30
2019-01-10T00:09:18.019Z,44.30
2019-01-10T00:10:18.020Z,43.70
2019-01-10T00:11:18.106Z,44.10
2019-01-10T00:12:18.151Z,45.30
2019-01-10T00:13:18.203Z,44.00
2019-01-10T00:14:18.279Z,43.40
2019-01-10T00:15:18.312Z,41.50
2019-01-10T00:16:18.330Z,41.80
2019-01-10T00:17:18.397Z,41.50
2019-01-10T00:18:18.435Z,41.80
2019-01-10T00:19:18.488Z,41.50
2019-01-10T00:20:18.548Z,41.60
2019-01-10T00:21:18.590Z,40.50
2019-01-10T00:22:18.620Z,41.20
2019-01-10T00:23:18.813Z,41.50
2019-01-10T00:24:18.705Z,40.00
2019-01-10T00:25:18.775Z,40.50
2019-01-10T00:26:18.828Z,40.20
2019-01-10T00:27:18.871Z,39.00
2019-01-10T00:28:18.930Z,39.20
2019-01-10T00:29:18.958Z,41.00
2019-01-10T00:30:19.024Z,35.40
2019-01-10T00:31:19.092Z,34.60
2019-01-10T00:32:19.126Z,36.20
2019-01-10T00:33:19.166Z,35.00
2019-01-10T00:34:19.228Z,34.20
2019-01-10T00:35:19.266Z,33.60
2019-01-10T00:36:19.377Z,35.20
2019-01-10T00:37:19.386Z,34.10
2019-01-10T00:38:19.489Z,32.50
2019-01-10T00:39:19.509Z,31.70
2019-01-10T00:40:19.502Z,32.10
2019-01-10T00:41:19.605Z,32.10
2019-01-10T00:42:19.627Z,31.00
2019-01-10T00:43:19.686Z,29.40
2019-01-10T00:44:19.724Z,27.90
2019-01-10T00:45:19.748Z,29.00
2019-01-10T00:46:19.802Z,28.70
2019-01-10T00:47:19.868Z,28.00
2019-01-10T00:48:19.908Z,28.30
2019-01-10T00:49:19.976Z,27.20
2019-01-10T00:50:20.017Z,27.50
2019-01-10T00:51:20.107Z,28.10
2019-01-10T00:52:20.098Z,27.40
2019-01-10T00:53:20.172Z,28.30
2019-01-10T00:54:20.223Z,27.40
2019-01-10T00:55:20.284Z,26.60
2019-01-10T00:56:20.323Z,26.90
2019-01-10T00:57:20.527Z,25.60
2019-01-10T00:58:20.414Z,27.10
2019-01-10T00:59:20.521Z,25.80
2019-01-10T01:00:20.563Z,24.70
2019-01-10T01:01:20.571Z,26.00
2019-01-10T01:02:20.620Z,25.90
2019-01-10T01:03:20.643Z,25.80
2019-01-10T01:04:20.730Z,26.40
2019-01-10T01:05:20.758Z,26.50
2019-01-10T01:06:20.802Z,27.00
2019-01-10T01:07:20.848Z,27.60
2019-01-10T01:08:20.916Z,27.70
2019-01-10T01:09:20.974Z,27.00
2019-01-10T01:10:21.008Z,26.30
2019-01-10T01:11:21.059Z,28.40
2019-01-10T01:12:21.108Z,27.00
2019-01-10T01:13:21.155Z,26.80
2019-01-10T01:14:21.212Z,27.30
2019-01-10T01:15:21.267Z,29.80
2019-01-10T01:16:21.305Z,30.20
2019-01-10T01:17:21.363Z,30.20
2019-01-10T01:18:21.398Z,28.90
2019-01-10T01:19:21.475Z,27.90
2019-01-10T01:20:21.501Z,29.00
2019-01-10T01:21:21.561Z,29.50
2019-01-10T01:22:21.612Z,29.50
2019-01-10T01:23:21.643Z,30.90
2019-01-10T01:24:21.679Z,30.60
2019-01-10T01:25:21.743Z,31.30
2019-01-10T01:26:21.790Z,32.50
2019-01-10T01:27:21.852Z,32.40
2019-01-10T01:28:21.934Z,32.80
2019-01-10T01:29:21.939Z,33.00
2019-01-10T01:30:22.050Z,31.90
2019-01-10T01:31:22.042Z,33.70
2019-01-10T01:32:22.242Z,32.90
2019-01-10T01:33:22.148Z,32.60
2019-01-10T01:34:22.176Z,33.90
2019-01-10T01:35:22.246Z,33.40
2019-01-10T01:36:22.287Z,32.10
2019-01-10T01:37:22.343Z,33.30
2019-01-10T01:38:22.392Z,32.70
2019-01-10T01:39:22.418Z,31.60
2019-01-10T01:40:22.490Z,32.60
2019-01-10T01:41:22.535Z,31.70
2019-01-10T01:42:22.575Z,32.80
2019-01-10T01:43:22.612Z,33.10
2019-01-10T01:44:22.681Z,31.70
2019-01-10T01:45:22.786Z,32.50
2019-01-10T01:46:22.770Z,31.60
2019-01-10T01:47:22.842Z,31.30
2019-01-10T01:48:22.874Z,32.80
2019-01-10T01:49:22.935Z,33.00
2019-01-10T01:50:22.983Z,32.10
2019-01-10T01:51:23.068Z,32.30
2019-01-10T01:52:23.080Z,32.10
2019-01-10T01:53:23.112Z,31.30
2019-01-10T01:54:23.221Z,31.80
2019-01-10T01:55:23.202Z,31.50
2019-01-10T01:56:23.289Z,30.90
2019-01-10T01:57:23.346Z,31.30
2019-01-10T01:58:23.378Z,29.20
2019-01-10T01:59:23.434Z,28.10
2019-01-10T02:00:23.504Z,27.70
2019-01-10T02:01:23.503Z,27.40
2019-01-10T02:02:23.582Z,28.10
2019-01-10T02:03:23.619Z,28.40
2019-01-10T02:04:23.636Z,28.50
2019-01-10T02:05:23.729Z,29.40
2019-01-10T02:06:23.761Z,30.20
2019-01-10T02:07:23.822Z,27.60
2019-01-10T02:08:23.867Z,28.50
2019-01-10T02:09:23.894Z,27.40
2019-01-10T02:10:23.965Z,27.20
2019-01-10T02:11:24.005Z,28.10
2019-01-10T02:12:24.067Z,26.90
2019-01-10T02:13:24.110Z,25.40
2019-01-10T02:14:24.159Z,25.30
2019-01-10T02:15:24.202Z,25.10
2019-01-10T02:16:24.250Z,23.80
2019-01-10T02:17:24.292Z,22.80
2019-01-10T02:18:24.341Z,22.10
2019-01-10T02:19:24.409Z,21.30
2019-01-10T02:20:24.469Z,19.80
2019-01-10T02:21:24.491Z,21.10
2019-01-10T02:22:24.568Z,20.80
2019-01-10T02:23:24.605Z,20.20
2019-01-10T02:24:24.674Z,19.90
2019-01-10T02:25:24.698Z,19.70
2019-01-10T02:26:24.746Z,20.30
2019-01-10T02:27:24.801Z,19.40
2019-01-10T02:28:24.838Z,19.50
2019-01-10T02:29:24.881Z,20.10
2019-01-10T02:30:24.936Z,19.40
2019-01-10T02:31:24.989Z,19.10
2019-01-10T02:32:25.066Z,19.60
2019-01-10T02:33:25.067Z,18.60
2019-01-10T02:34:25.141Z,18.20
2019-01-10T02:35:25.182Z,18.10
2019-01-10T02:36:25.259Z,18.30
2019-01-10T02:37:25.298Z,19.00
2019-01-10T02:38:25.332Z,18.20
2019-01-10T02:39:25.412Z,17.70
2019-01-10T02:40:25.425Z,17.10
2019-01-10T02:41:25.470Z,16.70
2019-01-10T02:42:25.526Z,17.80
2019-01-10T02:43:26.593Z,16.70
2019-01-10T02:44:25.626Z,16.10
2019-01-10T02:45:25.672Z,16.20
2019-01-10T02:46:25.726Z,15.70
2019-01-10T02:47:25.781Z,15.90
2019-01-10T02:48:25.810Z,16.80
2019-01-10T02:49:25.875Z,15.60
2019-01-10T02:50:25.921Z,15.10
2019-01-10T02:51:25.965Z,15.80
2019-01-10T02:52:26.041Z,15.40
2019-01-10T02:53:26.055Z,14.80
2019-01-10T02:54:26.115Z,15.10
2019-01-10T02:55:26.153Z,15.30
2019-01-10T02:56:26.242Z,14.70
2019-01-10T02:57:26.254Z,14.50
2019-01-10T02:58:26.301Z,14.60
2019-01-10T02:59:26.358Z,14.50
2019-01-10T03:00:26.396Z,15.30
2019-01-10T03:01:26.450Z,14.90
2019-01-10T03:02:26.495Z,13.80
2019-01-10T03:03:26.562Z,14.90
2019-01-10T03:04:26.602Z,14.60
2019-01-10T03:05:26.656Z,14.70
2019-01-10T03:06:26.689Z,13.90
2019-01-10T03:07:26.746Z,14.10
2019-01-10T03:08:26.790Z,14.70
2019-01-10T03:09:26.849Z,14.80
2019-01-10T03:10:26.889Z,14.90
2019-01-10T03:11:26.934Z,16.40
2019-01-10T03:12:26.994Z,15.10
2019-01-10T03:13:36.293Z,14.40
2019-01-10T03:14:27.077Z,13.60
2019-01-10T03:15:27.132Z,14.30
2019-01-10T03:16:27.223Z,14.40
2019-01-10T03:17:27.214Z,14.40
2019-01-10T03:18:27.266Z,13.10
2019-01-10T03:19:27.336Z,14.60
2019-01-10T03:20:27.365Z,13.70
2019-01-10T03:21:27.428Z,13.90
2019-01-10T03:22:27.470Z,13.40
2019-01-10T03:23:27.542Z,14.10
2019-01-10T03:24:27.559Z,13.40
2019-01-10T03:25:27.610Z,13.30
2019-01-10T03:26:27.696Z,13.40
2019-01-10T03:27:27.714Z,13.20
2019-01-10T03:28:27.766Z,15.30
2019-01-10T03:29:27.809Z,13.40
2019-01-10T03:30:27.843Z,14.60
2019-01-10T03:31:27.952Z,12.90
2019-01-10T03:32:27.964Z,14.40
2019-01-10T03:33:28.063Z,13.20
2019-01-10T03:34:28.037Z,13.50
2019-01-10T03:35:28.113Z,13.00
2019-01-10T03:36:28.164Z,13.10
2019-01-10T03:37:28.201Z,13.10
2019-01-10T03:38:28.232Z,13.20
2019-01-10T03:39:28.300Z,12.80
2019-01-10T03:40:28.352Z,13.10
2019-01-10T03:41:28.406Z,12.90
2019-01-10T03:42:28.439Z,13.20
2019-01-10T03:43:28.503Z,13.40
2019-01-10T03:44:34.102Z,12.80
2019-01-10T03:45:28.628Z,12.60
2019-01-10T03:46:28.626Z,13.10
2019-01-10T03:47:28.729Z,13.20
2019-01-10T03:48:28.733Z,13.50
2019-01-10T03:49:28.784Z,13.10
2019-01-10T03:50:28.834Z,13.30
2019-01-10T03:51:28.867Z,13.00
2019-01-10T03:52:28.926Z,13.10
2019-01-10T03:53:29.028Z,13.70
2019-01-10T03:54:29.075Z,13.10
2019-01-10T03:55:29.092Z,12.30
2019-01-10T03:56:29.113Z,12.60
2019-01-10T03:57:29.163Z,12.70
2019-01-10T03:58:29.209Z,12.40
2019-01-10T03:59:29.275Z,12.10
2019-01-10T04:00:29.325Z,12.20
2019-01-10T04:01:29.380Z,12.30
2019-01-10T04:02:29.438Z,12.20
2019-01-10T04:03:29.459Z,12.00
2019-01-10T04:04:29.515Z,12.80
2019-01-10T04:05:29.568Z,11.80
2019-01-10T04:06:29.648Z,11.80
2019-01-10T04:07:29.828Z,12.10
2019-01-10T04:08:29.740Z,12.60
2019-01-10T04:09:29.792Z,12.20
2019-01-10T04:10:29.819Z,12.30
2019-01-10T04:11:29.856Z,12.10
2019-01-10T04:12:29.888Z,12.60
2019-01-10T04:13:29.941Z,12.40
2019-01-10T04:14:29.994Z,13.00
2019-01-10T04:15:30.049Z,12.60
2019-01-10T04:16:30.120Z,12.90
2019-01-10T04:17:30.196Z,13.10
2019-01-10T04:18:30.199Z,13.60
2019-01-10T04:19:30.254Z,12.70
2019-01-10T04:20:30.302Z,12.50
2019-01-10T04:21:30.443Z,12.50
2019-01-10T04:22:30.375Z,13.20
2019-01-10T04:23:30.419Z,13.10
2019-01-10T04:24:30.475Z,13.10
2019-01-10T04:25:30.528Z,13.10
2019-01-10T04:26:30.558Z,13.60
2019-01-10T04:27:30.628Z,13.60
2019-01-10T04:28:30.650Z,13.00
2019-01-10T04:29:30.728Z,13.90
2019-01-10T04:30:30.754Z,13.60
2019-01-10T04:31:30.814Z,14.80
2019-01-10T04:32:30.855Z,14.30
2019-01-10T04:33:30.923Z,15.10
2019-01-10T04:34:30.945Z,14.80
2019-01-10T04:35:31.148Z,15.00
2019-01-10T04:36:31.064Z,15.70
2019-01-10T04:37:31.117Z,15.70
2019-01-10T04:38:31.153Z,15.40
2019-01-10T04:39:31.200Z,16.00
2019-01-10T04:40:31.285Z,16.00
2019-01-10T04:41:31.292Z,16.10
2019-01-10T04:42:31.340Z,16.30
2019-01-10T04:43:31.384Z,16.20
2019-01-10T04:44:31.438Z,15.80
2019-01-10T04:45:31.528Z,15.60
2019-01-10T04:46:31.530Z,16.40
2019-01-10T04:47:32.579Z,16.20
2019-01-10T04:48:31.620Z,16.70
2019-01-10T04:49:31.688Z,17.20
2019-01-10T04:50:31.724Z,17.20
2019-01-10T04:51:31.779Z,17.90
2019-01-10T04:52:31.817Z,17.80
2019-01-10T04:53:31.881Z,18.20
2019-01-10T04:54:31.896Z,18.90
2019-01-10T04:55:31.967Z,18.50
2019-01-10T04:56:32.002Z,19.50
2019-01-10T04:57:32.160Z,19.10
2019-01-10T04:58:32.118Z,19.50
2019-01-10T04:59:32.161Z,17.60
2019-01-10T05:00:32.183Z,19.40
2019-01-10T05:01:32.296Z,19.00
2019-01-10T05:02:32.310Z,19.80
2019-01-10T05:03:32.377Z,19.90
2019-01-10T05:04:32.392Z,22.60
2019-01-10T05:05:32.453Z,23.70
2019-01-10T05:06:32.496Z,22.60
2019-01-10T05:07:32.607Z,23.30
2019-01-10T05:08:32.589Z,23.50
2019-01-10T05:09:32.625Z,23.40
2019-01-10T05:10:32.673Z,24.10
2019-01-10T05:11:32.728Z,24.10
2019-01-10T05:12:32.768Z,23.50
2019-01-10T05:13:32.825Z,23.40
2019-01-10T05:14:32.866Z,23.40
2019-01-10T05:15:32.911Z,23.30
2019-01-10T05:16:32.968Z,24.60
2019-01-10T05:17:33.006Z,24.10
2019-01-10T05:18:33.204Z,22.90
2019-01-10T05:19:33.098Z,23.00
2019-01-10T05:20:33.152Z,23.90
2019-01-10T05:21:33.210Z,24.50
2019-01-10T05:22:33.243Z,24.80
2019-01-10T05:23:33.301Z,23.90
2019-01-10T05:24:33.353Z,25.20
2019-01-10T05:25:33.495Z,24.40
2019-01-10T05:26:33.441Z,24.10
2019-01-10T05:27:33.508Z,24.90
2019-01-10T05:28:33.527Z,23.90
2019-01-10T05:29:33.588Z,24.20
2019-01-10T05:30:33.635Z,24.20
2019-01-10T05:31:33.672Z,24.30
2019-01-10T05:32:33.744Z,24.30
2019-01-10T05:33:33.771Z,23.30
2019-01-10T05:34:33.823Z,24.40
2019-01-10T05:35:33.927Z,24.60
2019-01-10T05:36:34.078Z,24.00
2019-01-10T05:37:33.956Z,24.50
2019-01-10T05:38:34.024Z,23.50
2019-01-10T05:39:34.061Z,23.80
2019-01-10T05:40:34.115Z,23.80
2019-01-10T05:41:34.175Z,23.90
2019-01-10T05:42:34.229Z,24.20
2019-01-10T05:43:34.312Z,23.90
2019-01-10T05:44:34.346Z,23.60
2019-01-10T05:45:34.342Z,22.80
2019-01-10T05:46:34.400Z,24.00
2019-01-10T05:47:34.456Z,23.90
2019-01-10T05:48:34.665Z,23.50
2019-01-10T05:49:34.552Z,23.70
2019-01-10T05:50:34.581Z,24.30
2019-01-10T05:51:34.648Z,23.40
2019-01-10T05:52:34.698Z,22.90
2019-01-10T05:53:34.741Z,22.70
2019-01-10T05:54:34.798Z,22.00
2019-01-10T05:55:34.854Z,20.90
2019-01-10T05:56:34.881Z,20.70
2019-01-10T05:57:34.923Z,20.30
2019-01-10T05:58:34.984Z,20.70
2019-01-10T05:59:35.046Z,20.70
2019-01-10T06:00:35.082Z,21.10
2019-01-10T06:01:35.115Z,21.20
2019-01-10T06:02:35.163Z,21.20
2019-01-10T06:03:35.204Z,20.10
2019-01-10T06:04:35.363Z,20.50
2019-01-10T06:05:35.308Z,20.20
2019-01-10T06:06:35.364Z,20.30
2019-01-10T06:07:35.458Z,20.90
2019-01-10T06:08:35.465Z,21.00
2019-01-10T06:09:35.506Z,21.40
2019-01-10T06:10:35.646Z,21.00
2019-01-10T06:11:35.609Z,20.60
2019-01-10T06:12:35.659Z,20.00
2019-01-10T06:13:35.689Z,20.10
2019-01-10T06:14:36.020Z,20.20
2019-01-10T06:15:35.793Z,20.70
2019-01-10T06:16:35.830Z,20.20
2019-01-10T06:17:35.881Z,20.70
2019-01-10T06:18:35.977Z,20.40
2019-01-10T06:19:36.016Z,20.10
2019-01-10T06:20:36.046Z,19.30
2019-01-10T06:21:36.089Z,20.80
2019-01-10T06:22:36.114Z,20.40
2019-01-10T06:23:36.178Z,19.60
2019-01-10T06:24:36.235Z,19.50
2019-01-10T06:25:36.278Z,19.40
2019-01-10T06:26:36.469Z,19.60
2019-01-10T06:27:36.357Z,19.80
2019-01-10T06:28:36.405Z,19.30
2019-01-10T06:29:36.472Z,20.00
2019-01-10T06:30:36.501Z,20.40
2019-01-10T06:31:36.552Z,20.60
2019-01-10T06:32:36.586Z,20.20
2019-01-10T06:33:36.669Z,20.70
2019-01-10T06:34:36.757Z,20.80
2019-01-10T06:35:36.794Z,20.90
2019-01-10T06:36:36.788Z,21.20
2019-01-10T06:37:36.849Z,20.50
2019-01-10T06:38:36.897Z,21.00
2019-01-10T06:39:36.943Z,20.40
2019-01-10T06:40:36.977Z,21.40
2019-01-10T06:41:37.048Z,21.30
2019-01-10T06:42:37.074Z,20.60
2019-01-10T06:43:37.138Z,21.50
2019-01-10T06:44:44.540Z,21.00
2019-01-10T06:45:37.247Z,21.00
2019-01-10T06:46:37.335Z,21.30
2019-01-10T06:47:37.338Z,20.40
2019-01-10T06:48:37.376Z,21.10
2019-01-10T06:49:37.412Z,21.70
2019-01-10T06:50:39.128Z,21.60
2019-01-10T06:51:37.514Z,21.80
2019-01-10T06:52:37.554Z,22.00
2019-01-10T06:53:37.653Z,23.50
2019-01-10T06:54:37.654Z,21.80
2019-01-10T06:55:37.689Z,22.70
2019-01-10T06:56:37.844Z,23.70
2019-01-10T06:57:37.814Z,22.00
2019-01-10T06:58:37.835Z,21.00
2019-01-10T06:59:37.893Z,21.60
2019-01-10T07:00:37.947Z,21.20
2019-01-10T07:01:37.996Z,21.60
2019-01-10T07:02:38.048Z,21.70
2019-01-10T07:03:38.079Z,20.50
2019-01-10T07:04:38.138Z,21.60
2019-01-10T07:05:38.191Z,22.10
2019-01-10T07:06:38.218Z,21.70
2019-01-10T07:07:38.302Z,21.10
2019-01-10T07:08:38.317Z,21.20
2019-01-10T07:09:38.381Z,22.00
2019-01-10T07:10:38.452Z,21.50
2019-01-10T07:11:38.457Z,21.10
2019-01-10T07:12:39.898Z,20.50
2019-01-10T07:13:38.555Z,21.40
2019-01-10T07:14:38.610Z,20.70
2019-01-10T07:15:39.336Z,19.60
2019-01-10T07:16:38.703Z,19.60
2019-01-10T07:17:38.756Z,19.90
2019-01-10T07:18:38.819Z,20.60
2019-01-10T07:19:38.846Z,19.20
2019-01-10T07:20:38.900Z,19.50
2019-01-10T07:21:38.949Z,19.30
2019-01-10T07:22:38.995Z,18.70
2019-01-10T07:23:39.087Z,19.40
2019-01-10T07:24:39.112Z,19.20
2019-01-10T07:25:39.132Z,19.70
2019-01-10T07:26:39.191Z,19.20
2019-01-10T07:27:39.253Z,19.50
2019-01-10T07:28:39.325Z,17.60
2019-01-10T07:29:39.320Z,17.50
2019-01-10T07:30:39.385Z,18.00
2019-01-10T07:31:39.423Z,18.50
2019-01-10T07:32:39.467Z,18.40
2019-01-10T07:33:39.530Z,18.70
2019-01-10T07:34:39.584Z,17.80
2019-01-10T07:35:39.630Z,18.10
2019-01-10T07:36:39.658Z,18.10
2019-01-10T07:37:39.713Z,18.40
2019-01-10T07:38:39.785Z,18.90
2019-01-10T07:39:39.854Z,18.70
2019-01-10T07:40:39.874Z,18.50
2019-01-10T07:41:39.905Z,19.00
2019-01-10T07:42:39.952Z,18.90
2019-01-10T07:43:40.068Z,18.70
2019-01-10T07:44:40.050Z,18.80
2019-01-10T07:45:40.101Z,18.00
2019-01-10T07:46:40.157Z,18.10
2019-01-10T07:47:40.341Z,18.60
2019-01-10T07:48:40.251Z,17.30
2019-01-10T07:49:40.314Z,18.10
2019-01-10T07:50:40.331Z,19.10
2019-01-10T07:51:40.381Z,19.80
2019-01-10T07:52:40.469Z,19.70
2019-01-10T07:53:40.474Z,20.20
2019-01-10T07:54:42.564Z,19.50
2019-01-10T07:55:40.598Z,19.70
2019-01-10T07:56:40.625Z,19.80
2019-01-10T07:57:40.687Z,18.90
2019-01-10T07:58:40.718Z,20.30
2019-01-10T07:59:40.775Z,19.20
2019-01-10T08:00:40.821Z,18.30
2019-01-10T08:01:40.856Z,19.00
2019-01-10T08:02:40.916Z,20.00
2019-01-10T08:03:40.962Z,19.50
2019-01-10T08:04:40.995Z,18.60
2019-01-10T08:05:41.079Z,18.90
2019-01-10T08:06:41.108Z,18.10
2019-01-10T08:07:41.140Z,18.60
2019-01-10T08:08:41.193Z,17.20
2019-01-10T08:09:41.248Z,17.60
2019-01-10T08:10:41.358Z,17.00
2019-01-10T08:11:41.357Z,17.80
2019-01-10T08:12:41.401Z,17.00
2019-01-10T08:13:41.445Z,17.10
2019-01-10T08:14:41.582Z,16.10
2019-01-10T08:15:41.541Z,16.10
2019-01-10T08:16:41.629Z,14.10
2019-01-10T08:17:41.671Z,14.20
2019-01-10T08:18:41.674Z,15.10
2019-01-10T08:19:41.772Z,14.10
2019-01-10T08:20:41.780Z,14.00
2019-01-10T08:21:41.823Z,13.50
2019-01-10T08:22:41.874Z,12.30
2019-01-10T08:23:41.921Z,10.70
2019-01-10T08:24:41.986Z,11.50
2019-01-10T08:25:41.993Z,12.80
2019-01-10T08:26:42.062Z,12.00
2019-01-10T08:27:42.105Z,11.30
2019-01-10T08:28:42.162Z,11.20
2019-01-10T08:29:42.214Z,11.10
2019-01-10T08:30:42.238Z,9.30
2019-01-10T08:31:42.304Z,9.50
2019-01-10T08:32:42.446Z,9.70
2019-01-10T08:33:42.498Z,9.40
2019-01-10T08:34:42.427Z,8.10
2019-01-10T08:35:42.507Z,8.80
2019-01-10T08:36:42.546Z,8.10
2019-01-10T08:37:42.599Z,7.60
2019-01-10T08:38:42.645Z,6.80
2019-01-10T08:39:42.674Z,6.60
2019-01-10T08:40:42.727Z,6.10
2019-01-10T08:41:42.779Z,6.40
2019-01-10T08:42:42.854Z,6.20
2019-01-10T08:43:42.987Z,5.60
2019-01-10T08:44:42.945Z,5.90
2019-01-10T08:45:42.997Z,5.70
2019-01-10T08:46:43.030Z,5.80
2019-01-10T08:47:43.067Z,5.60
2019-01-10T08:48:43.128Z,5.30
2019-01-10T08:49:43.158Z,5.50
2019-01-10T08:50:43.224Z,5.20
2019-01-10T08:51:43.255Z,5.50
2019-01-10T08:52:43.366Z,5.40
2019-01-10T08:53:43.363Z,5.00
2019-01-10T08:54:43.392Z,5.20
2019-01-10T08:55:43.448Z,5.30
2019-01-10T08:56:43.515Z,4.90
2019-01-10T08:57:43.561Z,5.00
2019-01-10T08:58:43.601Z,5.20
2019-01-10T08:59:43.627Z,5.10
2019-01-10T09:00:43.679Z,4.90
2019-01-10T09:01:43.745Z,5.10
2019-01-10T09:02:43.783Z,5.00
2019-01-10T09:03:43.821Z,4.80
2019-01-10T09:04:43.886Z,5.10
2019-01-10T09:05:43.965Z,5.00
2019-01-10T09:06:43.978Z,5.10
2019-01-10T09:07:44.020Z,5.00
2019-01-10T09:08:44.065Z,4.90
2019-01-10T09:09:44.094Z,4.90
2019-01-10T09:10:44.178Z,5.00
2019-01-10T09:11:44.198Z,4.80
2019-01-10T09:12:44.303Z,4.80
2019-01-10T09:13:44.325Z,4.80
2019-01-10T09:14:44.396Z,4.70
2019-01-10T09:15:44.416Z,4.70
2019-01-10T09:16:44.463Z,4.20
2019-01-10T09:17:44.505Z,4.40
2019-01-10T09:18:44.552Z,4.40
2019-01-10T09:19:44.648Z,4.40
2019-01-10T09:20:44.657Z,4.20
2019-01-10T09:21:44.714Z,4.20
2019-01-10T09:22:44.729Z,4.30
2019-01-10T09:23:44.796Z,4.40
2019-01-10T09:24:44.850Z,4.00
2019-01-10T09:25:44.878Z,4.40
2019-01-10T09:26:44.928Z,4.30
2019-01-10T09:27:44.976Z,4.50
2019-01-10T09:28:45.048Z,4.50
2019-01-10T09:29:45.076Z,4.50
2019-01-10T09:30:45.130Z,4.50
2019-01-10T09:31:45.153Z,4.10
2019-01-10T09:32:45.218Z,4.20
2019-01-10T09:33:45.280Z,4.40
2019-01-10T09:34:45.321Z,4.30
2019-01-10T09:35:45.362Z,4.00
2019-01-10T09:36:45.417Z,4.20
2019-01-10T09:37:45.510Z,4.10
2019-01-10T09:38:45.561Z,4.20
2019-01-10T09:39:45.564Z,4.10
2019-01-10T09:40:45.598Z,4.10
2019-01-10T09:41:45.676Z,4.10
2019-01-10T09:42:45.721Z,3.90
2019-01-10T09:43:45.804Z,3.90
2019-01-10T09:44:45.794Z,3.70
2019-01-10T09:45:45.873Z,4.00
2019-01-10T09:46:45.894Z,3.70
2019-01-10T09:47:45.972Z,3.80
2019-01-10T09:48:45.981Z,3.80
2019-01-10T09:49:46.063Z,3.90
2019-01-10T09:50:46.097Z,3.70
2019-01-10T09:51:46.155Z,3.80
2019-01-10T09:52:46.254Z,4.10
2019-01-10T09:53:46.257Z,4.00
2019-01-10T09:54:46.422Z,3.70
2019-01-10T09:55:46.346Z,4.10
2019-01-10T09:56:46.420Z,3.90
2019-01-10T09:57:46.471Z,3.70
2019-01-10T09:58:46.517Z,3.80
2019-01-10T09:59:46.571Z,3.60
2019-01-10T10:00:46.629Z,3.60
2019-01-10T10:01:46.664Z,3.70
2019-01-10T10:02:46.724Z,3.60
2019-01-10T10:03:46.810Z,3.70
2019-01-10T10:04:46.829Z,3.60
2019-01-10T10:05:46.881Z,3.80
2019-01-10T10:06:46.927Z,3.90
2019-01-10T10:07:47.039Z,4.00
2019-01-10T10:08:47.042Z,4.10
2019-01-10T10:09:47.135Z,3.60
2019-01-10T10:10:47.138Z,3.90
2019-01-10T10:11:47.214Z,3.80
2019-01-10T10:12:47.235Z,3.70
2019-01-10T10:13:47.305Z,3.70
2019-01-10T10:14:47.355Z,3.60
2019-01-10T10:15:52.296Z,3.60
2019-01-10T10:16:47.474Z,3.80
2019-01-10T10:17:47.516Z,3.40
2019-01-10T10:18:47.559Z,3.70
2019-01-10T10:19:47.639Z,3.60
2019-01-10T10:20:47.733Z,3.60
2019-01-10T10:21:47.755Z,3.50
2019-01-10T10:22:47.785Z,3.60
2019-01-10T10:23:47.874Z,3.40
2019-01-10T10:24:47.911Z,3.40
2019-01-10T10:25:47.976Z,3.20
2019-01-10T10:26:48.025Z,3.40
2019-01-10T10:27:48.072Z,3.30
2019-01-10T10:28:48.235Z,3.00
2019-01-10T10:29:48.173Z,3.10
2019-01-10T10:30:48.242Z,3.10
2019-01-10T10:31:48.293Z,3.10
2019-01-10T10:32:48.367Z,2.80
2019-01-10T10:33:48.424Z,3.00
2019-01-10T10:34:48.470Z,3.30
2019-01-10T10:35:48.539Z,2.90
2019-01-10T10:36:48.570Z,3.20
2019-01-10T10:37:48.635Z,2.90
2019-01-10T10:38:48.687Z,2.70
2019-01-10T10:39:48.736Z,2.90
2019-01-10T10:40:48.802Z,2.80
2019-01-10T10:41:48.907Z,2.60
2019-01-10T10:42:48.898Z,2.70
2019-01-10T10:43:48.974Z,2.80
2019-01-10T10:44:49.035Z,2.80
2019-01-10T10:45:49.120Z,2.60
2019-01-10T10:46:49.142Z,2.60
2019-01-10T10:47:49.224Z,2.70
2019-01-10T10:48:49.260Z,2.70
2019-01-10T10:49:49.367Z,2.70
2019-01-10T10:50:49.376Z,2.60
2019-01-10T10:51:49.533Z,2.40
2019-01-10T10:52:49.493Z,2.30
2019-01-10T10:53:49.558Z,2.60
2019-01-10T10:54:49.620Z,2.40
2019-01-10T10:55:49.663Z,2.60
2019-01-10T10:56:49.727Z,2.30
2019-01-10T10:57:49.787Z,2.50
2019-01-10T10:58:49.830Z,2.70
2019-01-10T10:59:49.913Z,2.70
2019-01-10T11:00:49.967Z,2.30
2019-01-10T11:01:50.016Z,2.20
2019-01-10T11:02:50.061Z,2.40
2019-01-10T11:03:50.153Z,2.30
2019-01-10T11:04:50.177Z,2.40
2019-01-10T11:05:50.260Z,2.40
2019-01-10T11:06:50.312Z,2.50
2019-01-10T11:07:50.384Z,2.60
2019-01-10T11:08:50.441Z,2.10
2019-01-10T11:09:50.507Z,2.20
2019-01-10T11:10:50.570Z,2.40
2019-01-10T11:11:50.629Z,2.10
2019-01-10T11:12:50.693Z,2.20
2019-01-10T11:13:50.759Z,2.30
2019-01-10T11:14:50.808Z,2.20
2019-01-10T11:15:50.880Z,2.20
2019-01-10T11:16:50.928Z,2.30
2019-01-10T11:17:50.987Z,2.10
2019-01-10T11:18:51.050Z,2.30
2019-01-10T11:19:51.270Z,2.00
2019-01-10T11:20:51.173Z,2.20
2019-01-10T11:21:51.233Z,2.20
2019-01-10T11:22:51.294Z,2.00
2019-01-10T11:23:51.338Z,2.00
2019-01-10T11:24:51.462Z,2.20
2019-01-10T11:25:51.467Z,2.10
2019-01-10T11:26:53.482Z,2.30
2019-01-10T11:27:51.598Z,2.10
2019-01-10T11:28:51.634Z,2.20
2019-01-10T11:29:51.714Z,2.20
2019-01-10T11:30:51.772Z,1.90
2019-01-10T11:31:51.816Z,1.90
2019-01-10T11:32:53.731Z,2.10
2019-01-10T11:33:51.944Z,2.10
2019-01-10T11:34:52.023Z,2.10
2019-01-10T11:35:52.051Z,2.00
2019-01-10T11:36:52.134Z,1.90
2019-01-10T11:37:52.180Z,2.10
2019-01-10T11:38:52.283Z,2.30
2019-01-10T11:39:52.296Z,2.10
2019-01-10T11:40:52.368Z,2.10
2019-01-10T11:41:52.426Z,2.30
2019-01-10T11:42:52.502Z,2.30
2019-01-10T11:43:52.561Z,2.30
2019-01-10T11:44:52.608Z,2.30
2019-01-10T11:45:52.683Z,2.30
2019-01-10T11:46:52.742Z,2.00
2019-01-10T11:47:52.796Z,2.10
2019-01-10T11:48:52.855Z,2.30
2019-01-10T11:49:52.972Z,2.20
2019-01-10T11:50:52.989Z,2.20
2019-01-10T11:51:53.055Z,2.30
2019-01-10T11:52:53.101Z,2.40
2019-01-10T11:53:53.146Z,2.20
2019-01-10T11:54:53.231Z,2.20
2019-01-10T11:55:53.279Z,2.50
2019-01-10T11:56:53.354Z,2.40
2019-01-10T11:57:53.408Z,2.40
2019-01-10T11:58:53.631Z,2.20
2019-01-10T11:59:53.544Z,2.20
2019-01-10T12:00:53.615Z,2.30
2019-01-10T12:01:53.666Z,2.20
2019-01-10T12:02:53.728Z,2.00
2019-01-10T12:03:53.787Z,2.20
2019-01-10T12:04:53.867Z,2.00
2019-01-10T12:05:53.930Z,2.30
2019-01-10T12:06:53.978Z,2.40
2019-01-10T12:07:54.084Z,2.20
2019-01-10T12:08:54.106Z,2.10
2019-01-10T12:09:54.202Z,2.50
2019-01-10T12:10:54.277Z,2.20
2019-01-10T12:11:54.288Z,2.20
2019-01-10T12:12:54.352Z,2.40
2019-01-10T12:13:54.458Z,2.20
2019-01-10T12:14:54.480Z,2.20
2019-01-10T12:15:54.585Z,2.40
2019-01-10T12:16:54.601Z,2.50
2019-01-10T12:17:54.668Z,2.40
2019-01-10T12:18:59.297Z,2.30
2019-01-10T12:19:54.767Z,2.30
2019-01-10T12:20:54.887Z,2.20
2019-01-10T12:21:54.904Z,2.30
2019-01-10T12:22:54.983Z,2.20
2019-01-10T12:23:55.036Z,2.20
2019-01-10T12:24:55.135Z,2.20
2019-01-10T12:25:55.154Z,2.40
2019-01-10T12:26:55.239Z,2.30
2019-01-10T12:27:55.293Z,2.20
2019-01-10T12:28:55.329Z,2.30
2019-01-10T12:29:55.428Z,2.20
2019-01-10T12:30:55.464Z,2.30
2019-01-10T12:31:55.534Z,2.10
2019-01-10T12:32:55.598Z,2.30
2019-01-10T12:33:55.657Z,2.30
2019-01-10T12:34:55.733Z,2.40
2019-01-10T12:35:55.785Z,2.30
2019-01-10T12:37:00.483Z,2.40
2019-01-10T12:37:55.901Z,2.50
2019-01-10T12:38:55.976Z,2.20
2019-01-10T12:39:56.029Z,2.20
2019-01-10T12:40:56.103Z,2.30
2019-01-10T12:41:56.314Z,2.20
2019-01-10T12:42:56.224Z,2.40
2019-01-10T12:43:56.277Z,2.50
2019-01-10T12:44:56.338Z,2.50
2019-01-10T12:45:56.394Z,2.30
2019-01-10T12:46:56.463Z,2.30
2019-01-10T12:47:56.530Z,2.30
2019-01-10T12:48:56.590Z,2.30
2019-01-10T12:49:56.663Z,2.50
2019-01-10T12:50:56.729Z,2.40
2019-01-10T12:51:56.790Z,2.30
2019-01-10T12:52:56.856Z,2.40
2019-01-10T12:53:56.912Z,2.70
2019-01-10T12:54:57.001Z,2.50
2019-01-10T12:55:57.036Z,2.40
2019-01-10T12:56:57.073Z,2.40
2019-01-10T12:57:57.157Z,2.70
2019-01-10T12:58:57.220Z,2.10
2019-01-10T12:59:57.319Z,2.40
2019-01-10T13:00:57.340Z,2.40
2019-01-10T13:01:57.448Z,2.30